createdAt,value
2022-07-28T00:00:11.957Z,70.44
2022-07-28T00:01:35.473Z,70.40
2022-07-28T00:02:38.964Z,70.35
2022-07-28T00:03:42.473Z,70.28
2022-07-28T00:04:46.131Z,70.31
2022-07-28T00:05:51.609Z,70.24
2022-07-28T00:06:56.320Z,70.25
2022-07-28T00:07:59.578Z,70.41
2022-07-28T00:09:03.194Z,70.51
2022-07-28T00:10:07.739Z,70.59
2022-07-28T00:11:11.479Z,70.51
2022-07-28T00:12:15.349Z,70.52
2022-07-28T00:13:18.677Z,70.55
2022-07-28T00:14:23.053Z,70.65
2022-07-28T00:15:27.664Z,70.82
2022-07-28T00:16:31.377Z,70.88
2022-07-28T00:17:36.336Z,70.97
2022-07-28T00:18:40.052Z,70.89
2022-07-28T00:19:43.681Z,70.85
2022-07-28T00:20:47.190Z,70.83
2022-07-28T00:21:50.854Z,70.78
2022-07-28T00:22:54.723Z,70.79
2022-07-28T00:23:58.412Z,70.75
2022-07-28T00:25:02.338Z,70.56
2022-07-28T00:26:06.935Z,70.53
2022-07-28T00:27:10.729Z,70.67
2022-07-28T00:28:14.107Z,70.56
2022-07-28T00:29:18.290Z,70.63
2022-07-28T00:30:21.907Z,70.86
2022-07-28T00:31:25.923Z,70.71
2022-07-28T00:32:32.394Z,70.67
2022-07-28T00:33:37.013Z,70.80
2022-07-28T00:34:41.876Z,70.87
2022-07-28T00:35:48.467Z,70.72
2022-07-28T00:36:52.643Z,70.88
2022-07-28T00:37:56.159Z,70.83
2022-07-28T00:38:59.606Z,70.87
2022-07-28T00:40:05.139Z,70.92
2022-07-28T00:41:12.382Z,70.86
2022-07-28T00:42:20.718Z,70.71
2022-07-28T00:43:24.616Z,70.56
2022-07-28T00:44:28.609Z,70.64
2022-07-28T00:45:32.141Z,70.57
2022-07-28T00:46:35.959Z,70.55
2022-07-28T00:47:40.431Z,70.46
2022-07-28T00:48:47.250Z,70.44
2022-07-28T00:49:51.485Z,70.41
2022-07-28T00:50:55.850Z,70.35
2022-07-28T00:51:59.965Z,70.34
2022-07-28T00:53:03.849Z,70.34
2022-07-28T00:54:09.053Z,70.31
2022-07-28T00:55:12.954Z,70.28
2022-07-28T00:56:16.984Z,70.23
2022-07-28T00:57:22.146Z,70.13
2022-07-28T00:58:27.542Z,70.22
2022-07-28T00:59:33.807Z,70.24
2022-07-28T01:00:38.301Z,70.33
2022-07-28T01:01:43.161Z,70.47
2022-07-28T01:02:47.368Z,70.62
2022-07-28T01:03:58.756Z,70.71
2022-07-28T01:05:02.635Z,70.84
2022-07-28T01:06:27.548Z,70.80
2022-07-28T01:07:57.223Z,70.81
2022-07-28T01:09:32.485Z,70.81
2022-07-28T01:10:36.959Z,70.86
2022-07-28T01:12:01.739Z,70.81
2022-07-28T01:13:15.558Z,70.79
2022-07-28T01:14:25.701Z,70.78
2022-07-28T01:15:38.451Z,70.73
2022-07-28T01:17:11.295Z,70.78
2022-07-28T01:18:30.243Z,70.77
2022-07-28T01:19:41.878Z,70.83
2022-07-28T01:20:53.893Z,70.81
2022-07-28T01:22:00.525Z,71.06
2022-07-28T01:23:13.662Z,71.28
2022-07-28T01:24:31.705Z,71.39
2022-07-28T01:25:51.535Z,71.58
2022-07-28T01:27:16.925Z,71.54
2022-07-28T01:28:57.141Z,71.60
2022-07-28T01:30:10.841Z,71.52
2022-07-28T01:31:25.085Z,71.60
2022-07-28T01:32:43.670Z,71.64
2022-07-28T01:33:51.983Z,71.73
2022-07-28T01:35:04.182Z,71.81
2022-07-28T01:36:17.034Z,71.78
2022-07-28T01:37:27.257Z,71.77
2022-07-28T01:38:35.884Z,71.81
2022-07-28T01:39:42.989Z,71.70
2022-07-28T01:40:48.567Z,71.96
2022-07-28T01:41:58.734Z,71.94
2022-07-28T01:43:06.447Z,72.14
2022-07-28T01:44:17.029Z,72.05
2022-07-28T01:45:21.867Z,72.22
2022-07-28T01:46:27.861Z,72.18
2022-07-28T01:47:33.517Z,72.26
2022-07-28T01:48:39.727Z,72.24
2022-07-28T01:49:45.481Z,72.51
2022-07-28T01:50:51.408Z,72.75
2022-07-28T01:51:57.344Z,72.84
2022-07-28T01:53:01.708Z,72.93
2022-07-28T01:54:08.246Z,73.01
2022-07-28T01:55:16.329Z,73.01
2022-07-28T01:56:22.130Z,72.88
2022-07-28T01:57:28.162Z,72.89
2022-07-28T01:58:33.377Z,72.83
2022-07-28T01:59:39.116Z,72.79
2022-07-28T02:00:43.730Z,72.71
2022-07-28T02:01:49.011Z,72.70
2022-07-28T02:02:55.185Z,72.69
2022-07-28T02:04:02.580Z,72.67
2022-07-28T02:05:09.235Z,72.55
2022-07-28T02:06:14.726Z,72.42
2022-07-28T02:07:20.659Z,72.36
2022-07-28T02:08:25.890Z,72.34
2022-07-28T02:09:31.133Z,72.20
2022-07-28T02:10:36.221Z,72.23
2022-07-28T02:11:40.850Z,72.01
2022-07-28T02:12:47.099Z,71.99
2022-07-28T02:13:52.182Z,72.06
2022-07-28T02:14:57.195Z,72.02
2022-07-28T02:16:03.130Z,72.00
2022-07-28T02:17:11.834Z,72.14
2022-07-28T02:18:15.842Z,72.03
2022-07-28T02:19:21.660Z,72.07
2022-07-28T02:20:25.690Z,72.16
2022-07-28T02:21:31.663Z,72.21
2022-07-28T02:22:37.463Z,72.22
2022-07-28T02:23:43.695Z,72.23
2022-07-28T02:24:48.491Z,72.16
2022-07-28T02:25:53.356Z,72.27
2022-07-28T02:27:04.871Z,72.35
2022-07-28T02:28:11.187Z,72.32
2022-07-28T02:29:40.481Z,72.55
2022-07-28T02:30:54.980Z,72.37
2022-07-28T02:32:28.189Z,72.47
2022-07-28T02:33:59.971Z,72.45
2022-07-28T02:35:09.351Z,72.53
2022-07-28T02:36:29.008Z,72.55
2022-07-28T02:37:39.310Z,72.58
2022-07-28T02:38:46.544Z,72.46
2022-07-28T02:40:00.394Z,72.51
2022-07-28T02:41:11.214Z,72.47
2022-07-28T02:42:22.855Z,72.57
2022-07-28T02:43:49.333Z,72.53
2022-07-28T02:45:00.976Z,72.56
2022-07-28T02:46:10.545Z,72.61
2022-07-28T02:47:23.098Z,72.57
2022-07-28T02:48:30.300Z,72.35
2022-07-28T02:49:36.509Z,72.34
2022-07-28T02:50:41.458Z,72.35
2022-07-28T02:51:46.994Z,72.23
2022-07-28T02:52:53.313Z,72.14
2022-07-28T02:53:57.859Z,72.12
2022-07-28T02:55:03.107Z,72.01
2022-07-28T02:56:10.354Z,72.06
2022-07-28T02:57:16.563Z,72.01
2022-07-28T02:58:24.486Z,71.88
2022-07-28T02:59:28.991Z,71.79
2022-07-28T03:00:32.921Z,71.80
2022-07-28T03:01:37.563Z,71.73
2022-07-28T03:02:42.281Z,71.77
2022-07-28T03:03:48.476Z,71.80
2022-07-28T03:04:59.513Z,71.75
2022-07-28T03:06:03.244Z,71.88
2022-07-28T03:07:07.041Z,71.90
2022-07-28T03:08:11.170Z,72.00
2022-07-28T03:09:14.479Z,72.04
2022-07-28T03:10:32.941Z,72.04
2022-07-28T03:11:52.686Z,72.06
2022-07-28T03:12:59.851Z,71.92
2022-07-28T03:14:03.359Z,71.94
2022-07-28T03:15:10.518Z,71.97
2022-07-28T03:16:15.509Z,71.77
2022-07-28T03:17:19.673Z,71.80
2022-07-28T03:18:23.219Z,72.02
2022-07-28T03:19:26.665Z,72.10
2022-07-28T03:20:30.870Z,72.37
2022-07-28T03:21:34.870Z,72.69
2022-07-28T03:22:39.182Z,72.57
2022-07-28T03:23:46.173Z,72.81
2022-07-28T03:24:54.200Z,72.86
2022-07-28T03:26:02.383Z,73.11
2022-07-28T03:27:17.905Z,73.24
2022-07-28T03:28:22.502Z,73.33
2022-07-28T03:29:29.268Z,73.44
2022-07-28T03:30:38.964Z,73.56
2022-07-28T03:31:42.751Z,73.73
2022-07-28T03:32:54.970Z,73.83
2022-07-28T03:33:58.434Z,73.86
2022-07-28T03:35:02.824Z,73.94
2022-07-28T03:36:11.265Z,74.06
2022-07-28T03:37:20.611Z,74.10
2022-07-28T03:38:39.498Z,74.06
2022-07-28T03:39:48.710Z,74.01
2022-07-28T03:40:56.990Z,74.15
2022-07-28T03:42:05.896Z,73.99
2022-07-28T03:43:10.979Z,74.05
2022-07-28T03:44:26.924Z,74.09
2022-07-28T03:45:33.413Z,74.10
2022-07-28T03:46:37.239Z,74.07
2022-07-28T03:47:50.269Z,74.10
2022-07-28T03:48:53.857Z,74.05
2022-07-28T03:49:57.487Z,73.94
2022-07-28T03:51:01.104Z,73.93
2022-07-28T03:52:05.463Z,74.16
2022-07-28T03:53:24.814Z,73.93
2022-07-28T03:54:28.189Z,74.23
2022-07-28T03:55:31.817Z,74.15
2022-07-28T03:56:35.308Z,74.21
2022-07-28T03:57:38.860Z,74.03
2022-07-28T03:58:42.254Z,74.00
2022-07-28T03:59:45.747Z,74.02
2022-07-28T04:00:50.002Z,73.89
2022-07-28T04:01:56.621Z,73.87
2022-07-28T04:03:01.569Z,73.80
2022-07-28T04:04:05.443Z,73.62
2022-07-28T04:05:09.635Z,73.66
2022-07-28T04:06:13.683Z,73.75
2022-07-28T04:07:17.107Z,73.58
2022-07-28T04:08:20.395Z,73.63
2022-07-28T04:09:24.070Z,73.56
2022-07-28T04:10:27.793Z,73.70
2022-07-28T04:11:31.466Z,73.79
2022-07-28T04:12:57.006Z,73.82
2022-07-28T04:14:00.646Z,73.89
2022-07-28T04:15:12.482Z,73.78
2022-07-28T04:16:16.071Z,73.77
2022-07-28T04:17:19.573Z,73.90
2022-07-28T04:18:22.962Z,73.81
2022-07-28T04:19:26.354Z,73.84
2022-07-28T04:20:29.856Z,73.98
2022-07-28T04:21:33.545Z,73.83
2022-07-28T04:22:37.248Z,73.95
2022-07-28T04:23:40.624Z,74.10
2022-07-28T04:24:44.323Z,74.02
2022-07-28T04:25:48.989Z,74.13
2022-07-28T04:26:52.544Z,74.29
2022-07-28T04:27:59.575Z,74.27
2022-07-28T04:29:03.292Z,74.39
2022-07-28T04:30:13.447Z,74.41
2022-07-28T04:31:17.273Z,74.37
2022-07-28T04:32:20.997Z,74.52
2022-07-28T04:33:25.172Z,74.61
2022-07-28T04:34:28.760Z,74.72
2022-07-28T04:35:34.185Z,74.53
2022-07-28T04:36:42.500Z,74.61
2022-07-28T04:37:48.890Z,74.65
2022-07-28T04:38:52.495Z,74.58
2022-07-28T04:39:59.002Z,74.77
2022-07-28T04:41:05.602Z,74.76
2022-07-28T04:42:09.243Z,74.88
2022-07-28T04:43:12.905Z,74.86
2022-07-28T04:44:17.788Z,74.94
2022-07-28T04:45:22.799Z,74.81
2022-07-28T04:46:26.337Z,74.79
2022-07-28T04:47:32.107Z,74.96
2022-07-28T04:48:35.605Z,74.79
2022-07-28T04:49:42.325Z,74.90
2022-07-28T04:50:46.245Z,75.01
2022-07-28T04:51:51.232Z,74.82
2022-07-28T04:52:54.804Z,74.89
2022-07-28T04:53:58.349Z,74.90
2022-07-28T04:55:02.036Z,75.01
2022-07-28T04:56:05.976Z,75.02
2022-07-28T04:57:12.730Z,75.10
2022-07-28T04:58:19.349Z,75.17
2022-07-28T04:59:22.856Z,75.03
2022-07-28T05:00:26.521Z,74.99
2022-07-28T05:01:30.272Z,75.13
2022-07-28T05:02:35.995Z,75.07
2022-07-28T05:03:39.442Z,75.00
2022-07-28T05:04:42.996Z,75.00
2022-07-28T05:05:49.202Z,74.91
2022-07-28T05:06:58.286Z,74.90
2022-07-28T05:08:01.788Z,74.91
2022-07-28T05:09:05.470Z,75.00
2022-07-28T05:10:11.944Z,75.00
2022-07-28T05:11:15.504Z,74.95
2022-07-28T05:12:18.922Z,75.13
2022-07-28T05:13:22.289Z,75.17
2022-07-28T05:14:25.990Z,74.98
2022-07-28T05:15:29.741Z,75.08
2022-07-28T05:16:33.471Z,75.12
2022-07-28T05:17:37.649Z,74.82
2022-07-28T05:18:44.014Z,74.96
2022-07-28T05:19:49.133Z,74.92
2022-07-28T05:20:52.606Z,74.93
2022-07-28T05:21:56.403Z,74.91
2022-07-28T05:22:59.840Z,74.89
2022-07-28T05:24:03.999Z,74.94
2022-07-28T05:25:20.282Z,74.85
2022-07-28T05:26:24.781Z,74.68
2022-07-28T05:27:28.250Z,74.70
2022-07-28T05:28:32.257Z,74.63
2022-07-28T05:29:42.511Z,74.50
2022-07-28T05:30:50.743Z,74.44
2022-07-28T05:31:54.617Z,74.46
2022-07-28T05:33:01.969Z,74.48
2022-07-28T05:34:06.438Z,74.49
2022-07-28T05:35:10.406Z,74.44
2022-07-28T05:36:14.348Z,74.32
2022-07-28T05:37:18.531Z,74.35
2022-07-28T05:38:22.502Z,74.30
2022-07-28T05:39:25.998Z,74.22
2022-07-28T05:40:30.325Z,74.12
2022-07-28T05:41:34.134Z,74.11
2022-07-28T05:42:37.690Z,74.10
2022-07-28T05:43:41.372Z,74.11
2022-07-28T05:44:47.554Z,74.08
2022-07-28T05:45:51.317Z,74.13
2022-07-28T05:46:54.643Z,74.09
2022-07-28T05:47:57.824Z,73.86
2022-07-28T05:49:01.653Z,73.88
2022-07-28T05:50:05.679Z,73.75
2022-07-28T05:51:09.080Z,73.72
2022-07-28T05:52:12.656Z,73.69
2022-07-28T05:53:16.505Z,73.55
2022-07-28T05:54:20.002Z,73.47
2022-07-28T05:55:23.674Z,73.38
2022-07-28T05:56:27.827Z,73.30
2022-07-28T05:57:31.384Z,73.35
2022-07-28T05:58:34.823Z,73.37
2022-07-28T05:59:38.314Z,73.43
2022-07-28T06:00:42.386Z,73.40
2022-07-28T06:01:46.304Z,73.48
2022-07-28T06:02:50.764Z,73.50
2022-07-28T06:04:10.069Z,73.49
2022-07-28T06:05:19.922Z,73.41
2022-07-28T06:06:23.568Z,73.47
2022-07-28T06:07:43.173Z,73.33
2022-07-28T06:08:47.923Z,73.37
2022-07-28T06:09:51.520Z,73.39
2022-07-28T06:11:02.411Z,73.51
2022-07-28T06:12:06.960Z,73.41
2022-07-28T06:13:15.684Z,73.57
2022-07-28T06:14:19.480Z,73.54
2022-07-28T06:15:26.033Z,73.54
2022-07-28T06:16:29.588Z,73.43
2022-07-28T06:17:33.122Z,73.41
2022-07-28T06:18:36.664Z,73.28
2022-07-28T06:19:43.307Z,73.26
2022-07-28T06:20:47.758Z,73.15
2022-07-28T06:21:52.811Z,73.19
2022-07-28T06:22:56.530Z,73.01
2022-07-28T06:24:00.562Z,72.85
2022-07-28T06:25:04.520Z,72.94
2022-07-28T06:26:08.290Z,72.89
2022-07-28T06:27:11.793Z,72.75
2022-07-28T06:28:15.345Z,72.63
2022-07-28T06:29:19.538Z,72.57
2022-07-28T06:30:24.057Z,72.44
2022-07-28T06:31:27.431Z,72.35
2022-07-28T06:32:31.173Z,72.08
2022-07-28T06:33:34.600Z,71.72
2022-07-28T06:34:38.050Z,71.12
2022-07-28T06:35:46.709Z,70.69
2022-07-28T06:36:55.195Z,69.96
2022-07-28T06:37:58.820Z,69.46
2022-07-28T06:39:02.782Z,69.17
2022-07-28T06:40:07.586Z,68.41
2022-07-28T06:41:10.965Z,68.40
2022-07-28T06:42:14.546Z,68.21
2022-07-28T06:43:17.964Z,67.93
2022-07-28T06:44:21.545Z,67.21
2022-07-28T06:45:25.430Z,67.07
2022-07-28T06:46:29.100Z,66.73
2022-07-28T06:47:32.813Z,66.36
2022-07-28T06:48:39.766Z,66.08
2022-07-28T06:49:43.482Z,65.73
2022-07-28T06:50:46.987Z,65.51
2022-07-28T06:51:50.417Z,65.22
2022-07-28T06:52:58.803Z,64.89
2022-07-28T06:54:04.137Z,64.37
2022-07-28T06:55:13.012Z,64.17
2022-07-28T06:56:17.989Z,63.84
2022-07-28T06:57:33.206Z,63.33
2022-07-28T06:58:37.464Z,63.33
2022-07-28T06:59:41.031Z,63.34
2022-07-28T07:00:44.679Z,63.34
2022-07-28T07:01:48.683Z,62.27
2022-07-28T07:02:52.315Z,61.85
2022-07-28T07:03:56.617Z,62.19
2022-07-28T07:05:00.270Z,62.19
2022-07-28T07:06:04.349Z,62.33
2022-07-28T07:07:14.778Z,61.99
2022-07-28T07:08:21.187Z,61.73
2022-07-28T07:09:24.919Z,61.37
2022-07-28T07:10:29.403Z,61.24
2022-07-28T07:11:33.251Z,61.02
2022-07-28T07:12:37.221Z,60.36
2022-07-28T07:13:41.031Z,59.77
2022-07-28T07:14:44.665Z,60.01
2022-07-28T07:15:48.311Z,59.56
2022-07-28T07:16:52.467Z,58.93
2022-07-28T07:17:56.126Z,58.97
2022-07-28T07:18:59.545Z,58.98
2022-07-28T07:20:03.182Z,58.89
2022-07-28T07:21:07.004Z,58.52
2022-07-28T07:22:15.212Z,58.38
2022-07-28T07:23:18.940Z,57.47
2022-07-28T07:24:23.163Z,57.52
2022-07-28T07:25:27.515Z,57.34
2022-07-28T07:26:31.271Z,57.32
2022-07-28T07:27:34.660Z,57.36
2022-07-28T07:28:38.056Z,56.21
2022-07-28T07:29:41.420Z,56.40
2022-07-28T07:30:44.962Z,56.18
2022-07-28T07:31:52.948Z,56.18
2022-07-28T07:32:57.459Z,56.48
2022-07-28T07:34:01.272Z,56.29
2022-07-28T07:35:07.596Z,55.92
2022-07-28T07:36:11.083Z,56.13
2022-07-28T07:37:15.480Z,55.44
2022-07-28T07:38:19.110Z,55.21
2022-07-28T07:39:23.093Z,54.75
2022-07-28T07:40:26.726Z,55.46
2022-07-28T07:41:30.070Z,54.89
2022-07-28T07:42:34.679Z,54.77
2022-07-28T07:43:38.420Z,55.02
2022-07-28T07:44:42.149Z,54.30
2022-07-28T07:45:54.253Z,53.73
2022-07-28T07:46:57.899Z,53.25
2022-07-28T07:48:02.873Z,52.79
2022-07-28T07:49:06.889Z,52.59
2022-07-28T07:50:11.182Z,53.32
2022-07-28T07:51:15.672Z,53.54
2022-07-28T07:52:19.724Z,53.26
2022-07-28T07:53:23.238Z,52.84
2022-07-28T07:54:27.117Z,52.83
2022-07-28T07:55:34.555Z,52.22
2022-07-28T07:56:41.337Z,51.59
2022-07-28T07:57:45.413Z,51.89
2022-07-28T07:58:55.025Z,51.89
2022-07-28T08:00:00.219Z,51.85
2022-07-28T08:01:04.190Z,52.22
2022-07-28T08:02:07.863Z,51.64
2022-07-28T08:03:11.569Z,51.70
2022-07-28T08:04:18.326Z,51.68
2022-07-28T08:05:34.690Z,50.74
2022-07-28T08:06:40.169Z,51.44
2022-07-28T08:07:44.355Z,50.87
2022-07-28T08:08:48.994Z,49.90
2022-07-28T08:09:55.520Z,50.29
2022-07-28T08:10:58.980Z,50.44
2022-07-28T08:12:02.804Z,50.12
2022-07-28T08:13:08.113Z,50.42
2022-07-28T08:14:12.275Z,50.40
2022-07-28T08:15:16.111Z,49.84
2022-07-28T08:16:19.920Z,49.66
2022-07-28T08:17:26.257Z,49.58
2022-07-28T08:18:29.834Z,49.50
2022-07-28T08:19:33.395Z,49.04
2022-07-28T08:20:37.143Z,48.94
2022-07-28T08:21:41.862Z,48.00
2022-07-28T08:22:54.647Z,46.90
2022-07-28T08:23:59.355Z,46.06
2022-07-28T08:25:03.441Z,46.14
2022-07-28T08:26:08.277Z,46.19
2022-07-28T08:27:11.643Z,46.90
2022-07-28T08:28:14.826Z,47.87
2022-07-28T08:29:18.368Z,47.43
2022-07-28T08:30:26.308Z,46.80
2022-07-28T08:31:35.454Z,46.35
2022-07-28T08:32:39.743Z,46.76
2022-07-28T08:33:53.274Z,46.73
2022-07-28T08:35:22.696Z,46.97
2022-07-28T08:36:22.346Z,47.10
2022-07-28T08:37:26.791Z,46.39
2022-07-28T08:38:30.405Z,45.52
2022-07-28T08:39:34.981Z,45.09
2022-07-28T08:40:39.846Z,44.93
2022-07-28T08:41:52.304Z,45.30
2022-07-28T08:43:14.156Z,44.54
2022-07-28T08:44:23.922Z,43.96
2022-07-28T08:45:29.329Z,44.34
2022-07-28T08:46:42.217Z,44.52
2022-07-28T08:48:07.706Z,45.24
2022-07-28T08:49:14.911Z,46.10
2022-07-28T08:50:24.688Z,45.91
2022-07-28T08:51:29.173Z,44.99
2022-07-28T08:52:33.709Z,45.42
2022-07-28T08:53:39.055Z,45.43
2022-07-28T08:54:46.564Z,45.37
2022-07-28T08:55:51.795Z,45.24
2022-07-28T08:56:56.271Z,45.58
2022-07-28T08:58:00.863Z,45.11
2022-07-28T08:59:04.901Z,45.10
2022-07-28T09:00:10.649Z,44.49
2022-07-28T09:01:14.602Z,44.80
2022-07-28T09:02:19.402Z,42.68
2022-07-28T09:03:24.179Z,42.71
2022-07-28T09:04:27.974Z,42.97
2022-07-28T09:05:32.639Z,42.22
2022-07-28T09:06:42.356Z,41.55
2022-07-28T09:07:54.375Z,40.67
2022-07-28T09:08:58.643Z,41.89
2022-07-28T09:10:06.317Z,41.67
2022-07-28T09:11:09.790Z,41.30
2022-07-28T09:12:15.853Z,41.89
2022-07-28T09:13:20.531Z,42.30
2022-07-28T09:14:25.399Z,41.34
2022-07-28T09:15:29.225Z,41.24
2022-07-28T09:16:33.186Z,42.03
2022-07-28T09:17:37.181Z,42.28
2022-07-28T09:18:40.554Z,41.45
2022-07-28T09:19:44.569Z,39.66
2022-07-28T09:20:48.147Z,39.19
2022-07-28T09:21:52.559Z,38.53
2022-07-28T09:23:05.239Z,37.52
2022-07-28T09:24:36.988Z,38.10
2022-07-28T09:25:40.462Z,38.17
2022-07-28T09:27:07.152Z,39.02
2022-07-28T09:28:16.691Z,39.33
2022-07-28T09:29:25.886Z,39.48
2022-07-28T09:30:38.304Z,39.14
2022-07-28T09:31:57.515Z,39.32
2022-07-28T09:33:41.027Z,38.76
2022-07-28T09:34:51.722Z,39.65
2022-07-28T09:35:57.605Z,39.65
2022-07-28T09:37:01.063Z,39.39
2022-07-28T09:38:05.037Z,40.01
2022-07-28T09:39:09.111Z,40.01
2022-07-28T09:40:13.683Z,39.46
2022-07-28T09:41:22.158Z,38.24
2022-07-28T09:42:26.144Z,39.66
2022-07-28T09:43:52.500Z,39.20
2022-07-28T09:45:25.346Z,39.79
2022-07-28T09:46:29.859Z,40.12
2022-07-28T09:47:35.437Z,39.50
2022-07-28T09:48:51.361Z,39.33
2022-07-28T09:49:55.119Z,39.93
2022-07-28T09:51:14.055Z,39.91
2022-07-28T09:52:38.663Z,40.02
2022-07-28T09:53:44.440Z,40.43
2022-07-28T09:55:11.535Z,39.92
2022-07-28T09:56:15.431Z,40.17
2022-07-28T09:57:28.889Z,40.74
2022-07-28T09:58:34.944Z,40.19
2022-07-28T09:59:43.235Z,40.08
2022-07-28T10:00:49.449Z,40.23
2022-07-28T10:02:00.879Z,41.03
2022-07-28T10:03:05.818Z,40.12
2022-07-28T10:04:09.463Z,41.02
2022-07-28T10:05:15.002Z,41.91
2022-07-28T10:06:29.057Z,40.51
2022-07-28T10:07:34.578Z,40.08
2022-07-28T10:08:45.758Z,39.76
2022-07-28T10:10:05.534Z,39.75
2022-07-28T10:11:10.489Z,40.01
2022-07-28T10:12:25.350Z,39.44
2022-07-28T10:13:29.163Z,40.65
2022-07-28T10:14:33.370Z,40.12
2022-07-28T10:15:58.775Z,39.15
2022-07-28T10:17:06.001Z,39.64
2022-07-28T10:18:10.186Z,40.26
2022-07-28T10:19:13.997Z,40.66
2022-07-28T10:20:17.947Z,40.21
2022-07-28T10:21:25.898Z,39.36
2022-07-28T10:22:33.576Z,39.15
2022-07-28T10:23:41.570Z,40.01
2022-07-28T10:24:47.870Z,40.12
2022-07-28T10:25:53.213Z,40.32
2022-07-28T10:26:58.564Z,39.95
2022-07-28T10:28:04.065Z,40.58
2022-07-28T10:29:08.969Z,40.11
2022-07-28T10:30:13.493Z,39.67
2022-07-28T10:31:29.491Z,39.56
2022-07-28T10:32:41.824Z,40.11
2022-07-28T10:33:49.816Z,39.56
2022-07-28T10:35:20.023Z,39.09
2022-07-28T10:36:25.525Z,39.32
2022-07-28T10:37:37.814Z,38.85
2022-07-28T10:38:42.329Z,38.72
2022-07-28T10:39:52.405Z,39.06
2022-07-28T10:41:02.067Z,39.39
2022-07-28T10:42:11.860Z,40.09
2022-07-28T10:43:16.275Z,40.51
2022-07-28T10:44:20.412Z,39.91
2022-07-28T10:45:32.655Z,39.06
2022-07-28T10:46:46.815Z,38.84
2022-07-28T10:47:51.555Z,39.15
2022-07-28T10:48:58.638Z,39.17
2022-07-28T10:50:08.964Z,39.83
2022-07-28T10:51:12.870Z,38.67
2022-07-28T10:52:45.602Z,39.58
2022-07-28T10:53:54.430Z,39.41
2022-07-28T10:55:10.409Z,39.33
2022-07-28T10:56:20.173Z,39.98
2022-07-28T10:57:24.738Z,39.94
2022-07-28T10:58:37.290Z,39.71
2022-07-28T11:00:20.384Z,38.91
2022-07-28T11:01:50.070Z,39.40
2022-07-28T11:03:11.742Z,38.37
2022-07-28T11:04:53.302Z,38.52
2022-07-28T11:05:57.029Z,38.79
2022-07-28T11:07:11.704Z,38.19
2022-07-28T11:08:18.466Z,38.38
2022-07-28T11:09:53.736Z,39.29
2022-07-28T11:11:07.666Z,39.83
2022-07-28T11:12:16.235Z,39.28
2022-07-28T11:13:28.802Z,39.97
2022-07-28T11:14:37.045Z,40.55
2022-07-28T11:15:42.348Z,39.88
2022-07-28T11:16:46.570Z,39.77
2022-07-28T11:18:01.546Z,40.26
2022-07-28T11:19:42.422Z,40.75
2022-07-28T11:21:10.118Z,40.84
2022-07-28T11:22:19.180Z,41.36
2022-07-28T11:23:46.596Z,41.38
2022-07-28T11:25:19.233Z,40.00
2022-07-28T11:26:27.785Z,39.90
2022-07-28T11:27:52.701Z,40.56
2022-07-28T11:29:08.841Z,40.50
2022-07-28T11:30:33.137Z,40.51
2022-07-28T11:31:45.869Z,39.85
2022-07-28T11:32:55.681Z,39.90
2022-07-28T11:33:59.641Z,39.78
2022-07-28T11:35:09.378Z,40.31
2022-07-28T11:36:13.094Z,40.34
2022-07-28T11:37:16.963Z,40.43
2022-07-28T11:38:20.730Z,39.88
2022-07-28T11:39:29.072Z,41.19
2022-07-28T11:40:36.101Z,41.30
2022-07-28T11:41:40.619Z,40.43
2022-07-28T11:42:47.106Z,39.93
2022-07-28T11:43:51.163Z,39.91
2022-07-28T11:44:56.637Z,39.87
2022-07-28T11:46:02.678Z,40.17
2022-07-28T11:47:18.983Z,39.92
2022-07-28T11:48:23.909Z,41.30
2022-07-28T11:49:28.068Z,40.31
2022-07-28T11:50:32.048Z,39.91
2022-07-28T11:51:51.094Z,39.87
2022-07-28T11:53:00.991Z,39.00
2022-07-28T11:54:16.685Z,39.64
2022-07-28T11:55:20.509Z,39.83
2022-07-28T11:56:44.701Z,40.54
2022-07-28T11:57:53.521Z,39.72
2022-07-28T11:59:19.106Z,38.74
2022-07-28T12:00:35.154Z,39.40
2022-07-28T12:01:54.017Z,39.90
2022-07-28T12:02:58.113Z,39.66
2022-07-28T12:04:10.353Z,39.63
2022-07-28T12:05:16.287Z,38.85
2022-07-28T12:06:28.419Z,38.82
2022-07-28T12:07:36.984Z,39.58
2022-07-28T12:09:07.870Z,39.90
2022-07-28T12:10:53.273Z,38.94
2022-07-28T12:11:56.283Z,38.56
2022-07-28T12:13:08.085Z,39.23
2022-07-28T12:14:17.163Z,38.38
2022-07-28T12:15:21.841Z,38.21
2022-07-28T12:16:29.845Z,38.72
2022-07-28T12:17:34.730Z,38.61
2022-07-28T12:18:38.760Z,37.71
2022-07-28T12:19:46.716Z,37.72
2022-07-28T12:20:53.109Z,38.08
2022-07-28T12:21:57.999Z,37.57
2022-07-28T12:23:05.668Z,37.50
2022-07-28T12:24:12.384Z,38.23
2022-07-28T12:25:16.054Z,38.99
2022-07-28T12:26:41.538Z,38.38
2022-07-28T12:27:45.979Z,37.36
2022-07-28T12:28:51.948Z,37.15
2022-07-28T12:30:01.932Z,37.02
2022-07-28T12:31:15.957Z,37.70
2022-07-28T12:32:20.506Z,37.54
2022-07-28T12:33:29.791Z,37.62
2022-07-28T12:34:35.638Z,37.47
2022-07-28T12:35:39.293Z,37.72
2022-07-28T12:36:43.025Z,37.76
2022-07-28T12:37:49.457Z,38.64
2022-07-28T12:38:54.133Z,38.32
2022-07-28T12:39:58.244Z,36.64
2022-07-28T12:41:01.614Z,36.04
2022-07-28T12:42:10.798Z,35.85
2022-07-28T12:43:20.216Z,35.82
2022-07-28T12:44:35.788Z,37.09
2022-07-28T12:45:47.000Z,36.88
2022-07-28T12:46:50.677Z,37.22
2022-07-28T12:47:54.769Z,37.39
2022-07-28T12:49:00.178Z,37.51
2022-07-28T12:50:14.338Z,37.70
2022-07-28T12:51:39.308Z,38.08
2022-07-28T12:53:02.537Z,38.23
2022-07-28T12:54:14.871Z,38.08
2022-07-28T12:55:33.769Z,38.94
2022-07-28T12:56:53.566Z,38.81
2022-07-28T12:57:57.247Z,38.13
2022-07-28T12:59:09.287Z,37.57
2022-07-28T13:00:13.037Z,37.63
2022-07-28T13:01:17.054Z,37.77
2022-07-28T13:02:37.325Z,37.68
2022-07-28T13:03:52.022Z,37.91
2022-07-28T13:04:57.545Z,38.03
2022-07-28T13:06:11.174Z,37.86
2022-07-28T13:07:20.652Z,38.65
2022-07-28T13:08:27.666Z,38.23
2022-07-28T13:09:35.401Z,38.58
2022-07-28T13:10:47.025Z,38.79
2022-07-28T13:11:52.234Z,39.53
2022-07-28T13:13:08.254Z,39.91
2022-07-28T13:14:11.833Z,39.54
2022-07-28T13:15:17.108Z,39.23
2022-07-28T13:16:23.189Z,39.16
2022-07-28T13:17:32.772Z,39.30
2022-07-28T13:18:40.915Z,39.61
2022-07-28T13:19:45.956Z,39.24
2022-07-28T13:20:51.429Z,38.72
2022-07-28T13:22:02.862Z,38.26
2022-07-28T13:23:10.959Z,38.24
2022-07-28T13:24:18.102Z,37.72
2022-07-28T13:25:22.485Z,37.74
2022-07-28T13:26:26.234Z,37.61
2022-07-28T13:27:30.006Z,37.81
2022-07-28T13:28:33.959Z,37.05
2022-07-28T13:29:38.046Z,37.57
2022-07-28T13:30:41.879Z,37.41
2022-07-28T13:31:46.262Z,36.52
2022-07-28T13:32:50.084Z,37.07
2022-07-28T13:33:53.440Z,37.15
2022-07-28T13:34:57.456Z,37.95
2022-07-28T13:36:01.209Z,38.15
2022-07-28T13:37:05.015Z,37.88
2022-07-28T13:38:08.614Z,37.96
2022-07-28T13:39:14.270Z,38.25
2022-07-28T13:40:17.869Z,37.73
2022-07-28T13:41:21.956Z,38.28
2022-07-28T13:42:25.319Z,38.98
2022-07-28T13:43:35.959Z,39.46
2022-07-28T13:44:40.195Z,39.75
2022-07-28T13:45:43.806Z,39.32
2022-07-28T13:46:47.702Z,37.59
2022-07-28T13:47:53.774Z,36.87
2022-07-28T13:49:00.024Z,36.78
2022-07-28T13:50:04.459Z,36.22
2022-07-28T13:51:11.228Z,34.93
2022-07-28T13:52:33.322Z,35.42
2022-07-28T13:53:39.689Z,35.74
2022-07-28T13:54:43.335Z,35.70
2022-07-28T13:55:48.125Z,36.32
2022-07-28T13:56:51.806Z,36.34
2022-07-28T13:57:56.579Z,35.44
2022-07-28T13:59:10.576Z,35.59
2022-07-28T14:00:18.850Z,35.66
2022-07-28T14:01:26.494Z,34.50
2022-07-28T14:02:33.351Z,35.74
2022-07-28T14:03:55.794Z,36.23
2022-07-28T14:05:01.997Z,36.58
2022-07-28T14:06:06.153Z,36.60
2022-07-28T14:07:11.222Z,36.23
2022-07-28T14:08:19.727Z,35.35
2022-07-28T14:09:23.311Z,35.61
2022-07-28T14:10:27.644Z,35.52
2022-07-28T14:11:31.483Z,35.58
2022-07-28T14:12:40.040Z,35.61
2022-07-28T14:13:50.100Z,36.21
2022-07-28T14:14:53.790Z,36.07
2022-07-28T14:16:02.034Z,36.06
2022-07-28T14:17:32.234Z,36.65
2022-07-28T14:18:32.267Z,37.55
2022-07-28T14:19:38.972Z,37.62
2022-07-28T14:20:43.384Z,38.29
2022-07-28T14:21:47.156Z,38.37
2022-07-28T14:22:50.892Z,37.94
2022-07-28T14:23:54.778Z,38.39
2022-07-28T14:24:58.477Z,39.10
2022-07-28T14:26:25.162Z,38.26
2022-07-28T14:27:29.112Z,37.68
2022-07-28T14:28:32.882Z,37.79
2022-07-28T14:29:36.771Z,37.83
2022-07-28T14:30:40.312Z,37.62
2022-07-28T14:31:43.751Z,38.09